Logo AVAMET
Benvolgut visitant, si us plau, ingressa Recuperar contrasenya

IVIA Altea Montagut

Dades diàries. Acumulats / Últims 30 dies disponibles

Data Temperatura (°C) Humitat rel. (%) Pressió rel. (hPa) Vent (km/h) Precipitació
Mínima Mitjana Màxima Amplitud
tèrmica
Mínima Mitjana Màxima Mínima Mitjana Màxima Predom. Mitjana Ràfega
màxima
Total
(mm)
Índex-n
Mínima Mitjana Màxima Mínima Mitjana Màxima n
0 a 1
P0 max
mm 5'
Dades mensuals acumulades fins l'últim dia disponible
01/2020 3,9 6,5 10,3 10,7 14,7 16,5 21,1 17,2 71   3,2 23,2 20,1
Dades anuals acumulades fins l'últim dia disponible
2020 3,9 6,5 10,3 10,7 14,7 16,5 21,1 17,2 71   3,2 23,2 20,1
Últims 30 dies disponibles
18-01-2020 10,3     12,6     16,1 5,8 63 NW 3,1 19,0 0,0
17-01-2020 6,0     12,9     21,1 15,1 59 NW 2,3 15,0 0,0
16-01-2020 8,1     11,8     17,2 9,1 73 NW 2,5 10,9 0,0
15-01-2020 6,9     11,0     17,6 10,7 63 NW 2,6 9,4 0,8
14-01-2020 4,3     9,7     16,0 11,7 61 NW 3,4 16,5 0,0
13-01-2020 3,9     9,0     15,2 11,3 67 NW 3,9 21,8 0,0
12-01-2020 5,5     9,0     14,7 9,2 68 NW 3,9 13,1 0,0
11-01-2020 6,5     11,2     15,6 9,1 67 N 3,6 15,0 0,0
10-01-2020 6,9     10,9     16,2 9,3 74 N 4,5 23,2 18,9
09-01-2020 7,9     11,2     17,2 9,3 74 NW 3,3 12,6 0,0
08-01-2020 5,2     11,0     18,2 13,0 72 NW 2,5 12,2 0,0
07-01-2020 7,1     10,3     15,9 8,8 82 NW 3,4 14,2 0,0
06-01-2020 7,1     10,8     16,2 9,1 71 NW 3,2 11,8 0,0
05-01-2020 6,6     10,6     17,3 10,7 67 NW 3,5 12,9 0,0
04-01-2020 6,0     10,1     15,5 9,5 76 NW 3,0 12,1 0,2
03-01-2020 4,7     9,5     15,1 10,4 82 NW 2,5 12,3 0,0
02-01-2020 6,5     10,6     15,3 8,8 77 NW 3,4 19,2 0,0
01-01-2020 6,7     10,8     16,0 9,3 79 NW 3,0 14,4 0,2
31-12-2019 7,7     10,1     14,9 7,2 80 NW 3,1 11,0 0,0
30-12-2019 7,8     11,5     16,5 8,7 75 NW 2,7 11,3 0,0
29-12-2019 7,7     10,6     15,4 7,7 82 N 3,4 12,2 0,0
28-12-2019 7,2     11,4     15,4 8,2 84 NW 2,6 11,1 0,0
27-12-2019 8,5     12,8     18,7 10,2 75 NW 3,0 10,7 0,0
26-12-2019 8,4     14,0     23,2 14,8 65 N 1,9 8,7 0,0
25-12-2019 9,9     14,3     20,5 10,6 71 N 2,5 10,4 0,0
23-12-2019 11,1     16,4     21,9 10,8 52 NW 2,9 15,4 0,0
22-12-2019 15,1     18,3     22,7 7,6 46 SW 5,0 25,2 0,0
21-12-2019 14,5     17,4     22,5 8,0 75 S 5,1 30,1 0,0
20-12-2019 12,5     15,7     17,8 5,3 80 S 5,9 25,7 0,8
19-12-2019 7,7     11,8     16,0 8,3 66 SW 4,3 18,5 0,0
Últims 13 mesos disponibles
12/2019 6,7 9,7 15,1 13,4 13,5 18,0 23,2 16,5 44 72 86 NW 3,4 30,1 120,2
11/2019 4,7 10,9 18,4 15,2 15,5 20,0 27,7 23,0 36 56 86 NW 3,8 26,7 17,1
10/2019 9,1 15,5 19,2 19,7 16,3 24,7 29,3 20,2 41 69 86 NW 3,4 34,8 68,3
09/2019 12,8 19,3 23,5 23,2 24,3 27,6 31,6 18,8 59 74 86 N 4,0 33,1 119,8
08/2019 19,3 21,5 23,7 26,0 27,5 30,8 37,4 18,1 50 68 79 NE 4,3 27,6 18,7
07/2019 20,0 22,0 26,3 26,5 28,5 31,2 36,8 16,8 33 60 80 E 4,5 28,0 3,1
06/2019 14,5 17,6 25,5 22,7 23,3 27,8 35,8 21,3 36 60 77 NE 4,6 26,1 0,0
05/2019 10,3 13,9 17,2 18,3 19,2 22,9 29,3 19,0 50 66 82 N 4,5 28,8 7,2
04/2019 8,3 11,2 13,5 15,2 15,3 19,6 27,2 18,9 41 68 90 W 4,4 31,5 103,2
03/2019 7,8 9,5 11,9 14,1 13,9 19,3 25,8 18,0 43 59 88 N 4,2 29,2 32,8
02/2019 3,8 7,7 11,5 12,2 13,7 17,5 20,1 16,3 30 59 78 N 4,1 33,6 0,4
01/2019 2,6 7,2 12,5 11,4 11,9 16,5 21,3 18,7 33 59 82 NW 3,6 25,6 11,9
12/2018 6,8 9,1 10,9 12,9 14,3 18,4 22,7 15,9 47 72 85 NW 3,0 24,4 14,3
Tots els anys disponibles
2019 2,6 13,9 26,3 18,3 11,9 23,1 37,4 34,8 30 64 90 N 4,1 34,8 502,7
2018 2,6 14,1 25,3 18,3 8,5 23,0 36,4 33,8 33 65 92 N 3,9 36,5 354,0
2017 1,6 13,9 27,1 18,2 8,8 23,0 37,0 35,4 31 64 85 NW 4,0 39,3 577,6
2016 4,1 14,4 18,4 22,9 36,1 32,0 15 63 95 SO 4,1 39,0 338,7
2015 2,2 14,4 18,5 23,2 37,6 35,4 6 62 96 SO 4,2 34,7 330,9
2014 2,6 14,3 18,5 23,2 34,3 31,7 14 63 99 O 4,3 39,8 165,8
2013 1,8 13,5 17,6 22,3 33,7 31,9 12 64 100 O 4,5 43,6 425,1
2012 286,9
2011 1,0 14,1 24,9 18,3 9,8 22,9 34,9 33,9 28 65 93 4,1 33,0 431,7
2010 -0,3 13,0 23,7 17,1 6,8 21,6 36,0 36,3 30 64 95 4,1 37,0 433,0
2009 0,0 14,6 24,1 18,8 7,6 23,5 35,3 35,3 31 64 91 4,1 37,0 543,2
2008 371,8
2007 917,8
2006 576,8
Temperatura (°C)
Humitat relativa (%)
Velocitat del vent i ràfega màxima (km/h)
Direcció del vent (°)
Pressió (hPa)
Precipitació (mm)
Nota sobre les dades: s'avisa a l'usuari de la provisionalitat i no oficialitat d'aquestes dades
Logo AVAMET blanc
Web allotjada a Sollutia
Llicència de Creative CommonsLa web d'AVAMET i els seus continguts estan subjectes a una llicència de
Reconeixement - No Comercial - Compartir igual
Últimes estacions: Xixona - Els Ameradors (Soci), Agres - El Tossal (Soci), Xàbia - Bevenguts (MeteoXàbia), Llíria (Aj. Soci/Inforatge), Orihuela - Lo Capitán, Cox & Guardamar del Segura - horta (Meteorihuela), l'Alcúdia - Carriona & el Real de Gandia (Inforatge), Benicàssim - les Vil·les (Soci),  l'Alfàs del Pi - l'Albir (Soci), - - -